Reecon Emir — 9HA3644 — position and weather

sailwx.info

Track history (hours):
 
Tides and Currents Weather Stations Pressure Air Temp Water Temp Dewpoint Dewpoint Depression Visibility Wind Speed Wind Dir Waves Ship Positions

Reecon Emir

Last reported at 2018-Jun-20 13:00 UTC. Time now 2018-Jun-20 13:02 UTC.
Position N 37°37' E 025°44'.

Length 146 m; draft 7.9 m.

Type: Cargo ship. MMSI: 229825000.

Date/timePositionNaut miles runAvg speedWind from/ knotsBaromVisibWave heightAir tempDewpointWater temp
2018-Jun-20 13:00N 37°37' E 025°44'4 8.8
2018-Jun-20 12:30N 37°42' E 025°43'4 8.7
2018-Jun-20 12:00N 37°46' E 025°43'89 2.2
2018-Jun-18 19:30N 37°37' E 023°51'5 9.6
2018-Jun-18 19:00N 37°38' E 023°45'4 8.9
2018-Jun-18 18:30N 37°41' E 023°42'5 9.4
2018-Jun-18 18:00N 37°46' E 023°39'5 9.1
2018-Jun-18 17:30N 37°50' E 023°37'4 8.6
2018-Jun-18 17:00N 37°54' E 023°37'3 6.5
2018-Jun-18 16:30N 37°57' E 023°36'0 0.1
2018-Jun-18 16:00N 37°57' E 023°36'0 0.0
2018-Jun-18 15:30N 37°57' E 023°36'0 0.0
2018-Jun-18 15:00N 37°57' E 023°36'0 0.0
2018-Jun-18 14:30N 37°57' E 023°36'0 0.0
2018-Jun-18 14:00N 37°57' E 023°36'0 0.0
2018-Jun-18 13:30N 37°57' E 023°36'0 0.0
2018-Jun-18 13:00N 37°57' E 023°36'0 0.0
2018-Jun-18 12:30N 37°57' E 023°36'0 0.0
2018-Jun-18 12:00N 37°57' E 023°36'0 0.0
2018-Jun-18 11:30N 37°57' E 023°36'0 0.0
2018-Jun-18 11:00N 37°57' E 023°36'0 0.0
2018-Jun-18 10:30N 37°57' E 023°36'0 0.0
2018-Jun-18 10:00N 37°57' E 023°36'0 0.0
2018-Jun-18 09:30N 37°57' E 023°36'0 0.0
2018-Jun-18 09:00N 37°57' E 023°36'0 0.0
2018-Jun-18 08:30N 37°57' E 023°36'0 0.0
2018-Jun-18 08:00N 37°57' E 023°36'0 0.0
2018-Jun-18 07:30N 37°57' E 023°36'0 0.0
2018-Jun-18 07:00N 37°57' E 023°36'0 0.0
2018-Jun-18 06:30N 37°57' E 023°36'0 0.0
2018-Jun-18 06:00N 37°57' E 023°36'0 0.0
2018-Jun-18 05:30N 37°57' E 023°36'0 0.0
2018-Jun-18 05:00N 37°57' E 023°36'0 0.0
2018-Jun-18 04:30N 37°57' E 023°36'0 0.0
2018-Jun-18 04:00N 37°57' E 023°36'0 0.0
2018-Jun-18 03:30N 37°57' E 023°36'0 0.0
2018-Jun-18 03:00N 37°57' E 023°36'0 0.0
2018-Jun-18 02:30N 37°57' E 023°36'0 0.0
2018-Jun-18 02:00N 37°57' E 023°36'0 0.0
2018-Jun-18 01:30N 37°57' E 023°36'0 0.0
2018-Jun-18 01:00N 37°57' E 023°36'0 0.0
2018-Jun-18 00:30N 37°57' E 023°36'0 0.0
2018-Jun-18 00:00N 37°57' E 023°36'0 0.0
2018-Jun-17 23:30N 37°57' E 023°36'0 0.0
2018-Jun-17 23:00N 37°57' E 023°36'0 0.0
2018-Jun-17 22:30N 37°57' E 023°36'0 0.0
2018-Jun-17 22:00N 37°57' E 023°36'0 0.0
2018-Jun-17 21:30N 37°57' E 023°36'0 0.0
2018-Jun-17 21:00N 37°57' E 023°36'0 0.0
2018-Jun-17 20:30N 37°57' E 023°36'0 0.0
2018-Jun-17 20:00N 37°57' E 023°36'0 0.0
2018-Jun-17 19:30N 37°57' E 023°36'0 0.0
2018-Jun-17 19:00N 37°57' E 023°36'0 0.0
2018-Jun-17 18:30N 37°57' E 023°36'0 0.0
2018-Jun-17 18:00N 37°57' E 023°36'0 0.0
2018-Jun-17 17:30N 37°57' E 023°36'0 0.0
2018-Jun-17 17:00N 37°57' E 023°36'0 0.0
2018-Jun-17 16:30N 37°57' E 023°36'0 0.0
2018-Jun-17 16:00N 37°57' E 023°36'0 0.0
2018-Jun-17 15:30N 37°57' E 023°36'0 0.0
2018-Jun-17 15:00N 37°57' E 023°36'0 0.0
2018-Jun-17 14:30N 37°57' E 023°36'0 0.0
2018-Jun-17 14:00N 37°57' E 023°36'0 0.0
2018-Jun-17 13:30N 37°57' E 023°36'0 0.0
2018-Jun-17 13:00N 37°57' E 023°36'0 0.0
2018-Jun-17 12:30N 37°57' E 023°36'0 0.0
2018-Jun-17 12:00N 37°57' E 023°36'0 0.0
2018-Jun-17 11:30N 37°57' E 023°36'0 0.0
2018-Jun-17 11:00N 37°57' E 023°36'0 0.0
2018-Jun-17 10:30N 37°57' E 023°36'0 0.0
2018-Jun-17 10:00N 37°57' E 023°36'0 0.0
2018-Jun-17 09:30N 37°57' E 023°36'0 0.0
2018-Jun-17 09:00N 37°57' E 023°36'1 1.4
2018-Jun-17 08:30N 37°57' E 023°36'3 6.7
2018-Jun-17 08:00N 37°54' E 023°37'612.1
2018-Jun-17 07:30N 37°48' E 023°40'611.4
2018-Jun-17 07:00N 37°43' E 023°44'3 5.1
2018-Jun-17 06:30N 37°41' E 023°46'3 5.3
2018-Jun-17 06:00N 37°40' E 023°49'3 5.4
2018-Jun-17 05:30N 37°39' E 023°52'3 5.3
2018-Jun-17 05:00N 37°37' E 023°55'3 5.1
2018-Jun-17 04:30N 37°37' E 023°58'3 5.3
2018-Jun-17 04:00N 37°37' E 024°01'3 5.1
2018-Jun-17 03:28N 37°37' E 024°05'2 5.3
2018-Jun-17 03:00N 37°37' E 024°08'10 4.9
2018-Jun-17 01:02N 37°43' E 024°18'0 4.9
2018-Jun-17 01:00N 37°43' E 024°18'4 5.2
2018-Jun-17 00:17N 37°46' E 024°21'4 5.0
2018-Jun-16 23:27N 37°48' E 024°25'36 4.4
2018-Jun-16 15:14N 38°25' E 024°22'  
2018-Jun-14 10:05N 39°27' E 023°24'1 9.6
2018-Jun-14 09:59N 39°26' E 023°24'19 9.9
2018-Jun-14 08:02N 39°08' E 023°33'010.0
2018-Jun-14 07:59N 39°08' E 023°33'2710.2
2018-Jun-14 05:18N 38°50' E 023°60'72 7.5
2018-Jun-13 19:40N 37°37' E 024°05'310.1
2018-Jun-13 19:19N 37°37' E 024°01'510.6
2018-Jun-13 18:53N 37°38' E 023°55'510.6
2018-Jun-13 18:27N 37°38' E 023°49'510.4
2018-Jun-13 17:57N 37°40' E 023°43'510.5
2018-Jun-13 17:30N 37°44' E 023°40'5 9.6
2018-Jun-13 17:00N 37°48' E 023°38'5 9.4
2018-Jun-13 16:30N 37°53' E 023°37'4 8.3
2018-Jun-13 16:00N 37°57' E 023°36'0 0.6
2018-Jun-13 15:26N 37°57' E 023°36'0 0.0
2018-Jun-13 14:59N 37°57' E 023°36'0 0.0
2018-Jun-13 14:29N 37°57' E 023°36'0 0.0
2018-Jun-13 13:59N 37°57' E 023°36'0 0.0
2018-Jun-13 13:29N 37°57' E 023°36'0 0.0
2018-Jun-13 12:59N 37°57' E 023°36'0 0.0
2018-Jun-13 12:29N 37°57' E 023°36'0 0.0
2018-Jun-13 11:59N 37°57' E 023°36'0 0.0
2018-Jun-13 11:29N 37°57' E 023°36'0 0.0
2018-Jun-13 10:59N 37°57' E 023°36'0 0.0
2018-Jun-13 10:29N 37°57' E 023°36'0 0.0
2018-Jun-13 09:59N 37°57' E 023°36'0 0.0
2018-Jun-13 09:29N 37°57' E 023°36'0 0.0
2018-Jun-13 08:59N 37°57' E 023°36'0 0.0
2018-Jun-13 08:29N 37°57' E 023°36'0 0.0
2018-Jun-13 07:59N 37°57' E 023°36'0 0.0
2018-Jun-13 07:29N 37°57' E 023°36'0 0.0
2018-Jun-13 07:00N 37°57' E 023°36'0 0.0
2018-Jun-13 06:30N 37°57' E 023°36'0 0.0
2018-Jun-13 06:00N 37°57' E 023°36'0 0.0
2018-Jun-13 05:30N 37°57' E 023°36'0 0.0
2018-Jun-13 05:00N 37°57' E 023°36'0 0.0
2018-Jun-13 04:30N 37°57' E 023°36'1 1.7
2018-Jun-13 04:01N 37°57' E 023°36'2 4.3
2018-Jun-13 03:30N 37°54' E 023°36'1 2.0
2018-Jun-13 03:00N 37°53' E 023°36'1 2.5
2018-Jun-13 02:30N 37°53' E 023°37'2 3.4
2018-Jun-13 02:00N 37°51' E 023°39'2 4.8
2018-Jun-13 01:31N 37°49' E 023°40'3 5.4
2018-Jun-13 01:00N 37°47' E 023°42'3 5.2
2018-Jun-13 00:30N 37°44' E 023°43'3 5.4
2018-Jun-13 00:00N 37°42' E 023°45'3 5.3
2018-Jun-12 23:30N 37°40' E 023°47'3 6.1
2018-Jun-12 23:00N 37°39' E 023°50'3 6.1
2018-Jun-12 22:30N 37°38' E 023°54'3 5.5
2018-Jun-12 22:00N 37°37' E 023°57'3 5.5
2018-Jun-12 21:31N 37°37' E 024°01'3 4.2
2018-Jun-12 20:45N 37°37' E 024°05'3 3.7
2018-Jun-12 20:04N 37°37' E 024°08'0 3.6
2018-Jun-12 20:00N 37°37' E 024°08'9 4.0
2018-Jun-12 17:45N 37°43' E 024°17'1 3.7
2018-Jun-12 17:28N 37°44' E 024°18'6 3.7
2018-Jun-12 15:45N 37°49' E 024°23'31 5.8
2018-Jun-12 10:24N 38°19' E 024°34'4 7.1
2018-Jun-12 09:51N 38°22' E 024°32'7 7.2
2018-Jun-12 08:54N 38°28' E 024°27'3 7.0
2018-Jun-12 08:29N 38°30' E 024°26'4 7.8
2018-Jun-12 08:00N 38°34' E 024°23'4 8.7
2018-Jun-12 07:30N 38°38' E 024°21'510.1
2018-Jun-12 06:58N 38°42' E 024°17'  
Track history (hours):
 
Tides and Currents Weather Stations Pressure Air Temp Water Temp Dewpoint Dewpoint Depression Visibility Wind Speed Wind Dir Waves Ship Positions

Reecon Emir

Last reported at 2018-Jun-20 13:00 UTC. Time now 2018-Jun-20 13:02 UTC.
Position N 37°37' E 025°44'.

Length 146 m; draft 7.9 m.

Type: Cargo ship. MMSI: 229825000.

Date/timePositionNaut miles runAvg speedWind from/ knotsBaromVisibWave heightAir tempDewpointWater temp
2018-Jun-20 13:00N 37°37' E 025°44'4 8.8
2018-Jun-20 12:30N 37°42' E 025°43'4 8.7
2018-Jun-20 12:00N 37°46' E 025°43'89 2.2
2018-Jun-18 19:30N 37°37' E 023°51'5 9.6
2018-Jun-18 19:00N 37°38' E 023°45'4 8.9
2018-Jun-18 18:30N 37°41' E 023°42'5 9.4
2018-Jun-18 18:00N 37°46' E 023°39'5 9.1
2018-Jun-18 17:30N 37°50' E 023°37'4 8.6
2018-Jun-18 17:00N 37°54' E 023°37'3 6.5
2018-Jun-18 16:30N 37°57' E 023°36'0 0.1
2018-Jun-18 16:00N 37°57' E 023°36'0 0.0
2018-Jun-18 15:30N 37°57' E 023°36'0 0.0
2018-Jun-18 15:00N 37°57' E 023°36'0 0.0
2018-Jun-18 14:30N 37°57' E 023°36'0 0.0
2018-Jun-18 14:00N 37°57' E 023°36'0 0.0
2018-Jun-18 13:30N 37°57' E 023°36'0 0.0
2018-Jun-18 13:00N 37°57' E 023°36'0 0.0
2018-Jun-18 12:30N 37°57' E 023°36'0 0.0
2018-Jun-18 12:00N 37°57' E 023°36'0 0.0
2018-Jun-18 11:30N 37°57' E 023°36'0 0.0
2018-Jun-18 11:00N 37°57' E 023°36'0 0.0
2018-Jun-18 10:30N 37°57' E 023°36'0 0.0
2018-Jun-18 10:00N 37°57' E 023°36'0 0.0
2018-Jun-18 09:30N 37°57' E 023°36'0 0.0
2018-Jun-18 09:00N 37°57' E 023°36'0 0.0
2018-Jun-18 08:30N 37°57' E 023°36'0 0.0
2018-Jun-18 08:00N 37°57' E 023°36'0 0.0
2018-Jun-18 07:30N 37°57' E 023°36'0 0.0
2018-Jun-18 07:00N 37°57' E 023°36'0 0.0
2018-Jun-18 06:30N 37°57' E 023°36'0 0.0
2018-Jun-18 06:00N 37°57' E 023°36'0 0.0
2018-Jun-18 05:30N 37°57' E 023°36'0 0.0
2018-Jun-18 05:00N 37°57' E 023°36'0 0.0
2018-Jun-18 04:30N 37°57' E 023°36'0 0.0
2018-Jun-18 04:00N 37°57' E 023°36'0 0.0
2018-Jun-18 03:30N 37°57' E 023°36'0 0.0
2018-Jun-18 03:00N 37°57' E 023°36'0 0.0
2018-Jun-18 02:30N 37°57' E 023°36'0 0.0
2018-Jun-18 02:00N 37°57' E 023°36'0 0.0
2018-Jun-18 01:30N 37°57' E 023°36'0 0.0
2018-Jun-18 01:00N 37°57' E 023°36'0 0.0
2018-Jun-18 00:30N 37°57' E 023°36'0 0.0
2018-Jun-18 00:00N 37°57' E 023°36'0 0.0
2018-Jun-17 23:30N 37°57' E 023°36'0 0.0
2018-Jun-17 23:00N 37°57' E 023°36'0 0.0
2018-Jun-17 22:30N 37°57' E 023°36'0 0.0
2018-Jun-17 22:00N 37°57' E 023°36'0 0.0
2018-Jun-17 21:30N 37°57' E 023°36'0 0.0
2018-Jun-17 21:00N 37°57' E 023°36'0 0.0
2018-Jun-17 20:30N 37°57' E 023°36'0 0.0
2018-Jun-17 20:00N 37°57' E 023°36'0 0.0
2018-Jun-17 19:30N 37°57' E 023°36'0 0.0
2018-Jun-17 19:00N 37°57' E 023°36'0 0.0
2018-Jun-17 18:30N 37°57' E 023°36'0 0.0
2018-Jun-17 18:00N 37°57' E 023°36'0 0.0
2018-Jun-17 17:30N 37°57' E 023°36'0 0.0
2018-Jun-17 17:00N 37°57' E 023°36'0 0.0
2018-Jun-17 16:30N 37°57' E 023°36'0 0.0
2018-Jun-17 16:00N 37°57' E 023°36'0 0.0
2018-Jun-17 15:30N 37°57' E 023°36'0 0.0
2018-Jun-17 15:00N 37°57' E 023°36'0 0.0
2018-Jun-17 14:30N 37°57' E 023°36'0 0.0
2018-Jun-17 14:00N 37°57' E 023°36'0 0.0
2018-Jun-17 13:30N 37°57' E 023°36'0 0.0
2018-Jun-17 13:00N 37°57' E 023°36'0 0.0
2018-Jun-17 12:30N 37°57' E 023°36'0 0.0
2018-Jun-17 12:00N 37°57' E 023°36'0 0.0
2018-Jun-17 11:30N 37°57' E 023°36'0 0.0
2018-Jun-17 11:00N 37°57' E 023°36'0 0.0
2018-Jun-17 10:30N 37°57' E 023°36'0 0.0
2018-Jun-17 10:00N 37°57' E 023°36'0 0.0
2018-Jun-17 09:30N 37°57' E 023°36'0 0.0
2018-Jun-17 09:00N 37°57' E 023°36'1 1.4
2018-Jun-17 08:30N 37°57' E 023°36'3 6.7
2018-Jun-17 08:00N 37°54' E 023°37'612.1
2018-Jun-17 07:30N 37°48' E 023°40'611.4
2018-Jun-17 07:00N 37°43' E 023°44'3 5.1
2018-Jun-17 06:30N 37°41' E 023°46'3 5.3
2018-Jun-17 06:00N 37°40' E 023°49'3 5.4
2018-Jun-17 05:30N 37°39' E 023°52'3 5.3
2018-Jun-17 05:00N 37°37' E 023°55'3 5.1
2018-Jun-17 04:30N 37°37' E 023°58'3 5.3
2018-Jun-17 04:00N 37°37' E 024°01'3 5.1
2018-Jun-17 03:28N 37°37' E 024°05'2 5.3
2018-Jun-17 03:00N 37°37' E 024°08'10 4.9
2018-Jun-17 01:02N 37°43' E 024°18'0 4.9
2018-Jun-17 01:00N 37°43' E 024°18'4 5.2
2018-Jun-17 00:17N 37°46' E 024°21'4 5.0
2018-Jun-16 23:27N 37°48' E 024°25'36 4.4
2018-Jun-16 15:14N 38°25' E 024°22'  
2018-Jun-14 10:05N 39°27' E 023°24'1 9.6
2018-Jun-14 09:59N 39°26' E 023°24'19 9.9
2018-Jun-14 08:02N 39°08' E 023°33'010.0
2018-Jun-14 07:59N 39°08' E 023°33'2710.2
2018-Jun-14 05:18N 38°50' E 023°60'72 7.5
2018-Jun-13 19:40N 37°37' E 024°05'310.1
2018-Jun-13 19:19N 37°37' E 024°01'510.6
2018-Jun-13 18:53N 37°38' E 023°55'510.6
2018-Jun-13 18:27N 37°38' E 023°49'510.4
2018-Jun-13 17:57N 37°40' E 023°43'510.5
2018-Jun-13 17:30N 37°44' E 023°40'5 9.6
2018-Jun-13 17:00N 37°48' E 023°38'5 9.4
2018-Jun-13 16:30N 37°53' E 023°37'4 8.3
2018-Jun-13 16:00N 37°57' E 023°36'0 0.6
2018-Jun-13 15:26N 37°57' E 023°36'0 0.0
2018-Jun-13 14:59N 37°57' E 023°36'0 0.0
2018-Jun-13 14:29N 37°57' E 023°36'0 0.0
2018-Jun-13 13:59N 37°57' E 023°36'0 0.0
2018-Jun-13 13:29N 37°57' E 023°36'0 0.0
2018-Jun-13 12:59N 37°57' E 023°36'0 0.0
2018-Jun-13 12:29N 37°57' E 023°36'0 0.0
2018-Jun-13 11:59N 37°57' E 023°36'0 0.0
2018-Jun-13 11:29N 37°57' E 023°36'0 0.0
2018-Jun-13 10:59N 37°57' E 023°36'0 0.0
2018-Jun-13 10:29N 37°57' E 023°36'0 0.0
2018-Jun-13 09:59N 37°57' E 023°36'0 0.0
2018-Jun-13 09:29N 37°57' E 023°36'0 0.0
2018-Jun-13 08:59N 37°57' E 023°36'0 0.0
2018-Jun-13 08:29N 37°57' E 023°36'0 0.0
2018-Jun-13 07:59N 37°57' E 023°36'0 0.0
2018-Jun-13 07:29N 37°57' E 023°36'0 0.0
2018-Jun-13 07:00N 37°57' E 023°36'0 0.0
2018-Jun-13 06:30N 37°57' E 023°36'0 0.0
2018-Jun-13 06:00N 37°57' E 023°36'0 0.0
2018-Jun-13 05:30N 37°57' E 023°36'0 0.0
2018-Jun-13 05:00N 37°57' E 023°36'0 0.0
2018-Jun-13 04:30N 37°57' E 023°36'1 1.7
2018-Jun-13 04:01N 37°57' E 023°36'2 4.3
2018-Jun-13 03:30N 37°54' E 023°36'1 2.0
2018-Jun-13 03:00N 37°53' E 023°36'1 2.5
2018-Jun-13 02:30N 37°53' E 023°37'2 3.4
2018-Jun-13 02:00N 37°51' E 023°39'2 4.8
2018-Jun-13 01:31N 37°49' E 023°40'3 5.4
2018-Jun-13 01:00N 37°47' E 023°42'3 5.2
2018-Jun-13 00:30N 37°44' E 023°43'3 5.4
2018-Jun-13 00:00N 37°42' E 023°45'3 5.3
2018-Jun-12 23:30N 37°40' E 023°47'3 6.1
2018-Jun-12 23:00N 37°39' E 023°50'3 6.1
2018-Jun-12 22:30N 37°38' E 023°54'3 5.5
2018-Jun-12 22:00N 37°37' E 023°57'3 5.5
2018-Jun-12 21:31N 37°37' E 024°01'3 4.2
2018-Jun-12 20:45N 37°37' E 024°05'3 3.7
2018-Jun-12 20:04N 37°37' E 024°08'0 3.6
2018-Jun-12 20:00N 37°37' E 024°08'9 4.0
2018-Jun-12 17:45N 37°43' E 024°17'1 3.7
2018-Jun-12 17:28N 37°44' E 024°18'6 3.7
2018-Jun-12 15:45N 37°49' E 024°23'31 5.8
2018-Jun-12 10:24N 38°19' E 024°34'4 7.1
2018-Jun-12 09:51N 38°22' E 024°32'7 7.2
2018-Jun-12 08:54N 38°28' E 024°27'3 7.0
2018-Jun-12 08:29N 38°30' E 024°26'4 7.8
2018-Jun-12 08:00N 38°34' E 024°23'4 8.7
2018-Jun-12 07:30N 38°38' E 024°21'510.1
2018-Jun-12 06:58N 38°42' E 024°17'  

Dump ship's entire track history